sensor_id;sensor_type;location;lat;lon;timestamp;pressure;altitude;pressure_sealevel;temperature;humidity
38191;BME280;25191;47.510;19.124;2023-05-15T00:18:10;99599.72;;;21.86;55.33
38191;BME280;25191;47.510;19.124;2023-05-15T00:38:11;99629.38;;;21.88;55.09
38191;BME280;25191;47.510;19.124;2023-05-15T00:58:13;99603.31;;;21.85;55.04
38191;BME280;25191;47.510;19.124;2023-05-15T01:18:14;99577.94;;;21.84;55.41
38191;BME280;25191;47.510;19.124;2023-05-15T01:58:27;99530.94;;;21.80;54.88
38191;BME280;25191;47.510;19.124;2023-05-15T02:18:28;99551.19;;;21.79;54.82
38191;BME280;25191;47.510;19.124;2023-05-15T02:38:34;99582.13;;;21.77;55.00
38191;BME280;25191;47.510;19.124;2023-05-15T02:58:37;99581.28;;;21.77;55.02
38191;BME280;25191;47.510;19.124;2023-05-15T03:18:38;99558.69;;;21.74;54.81
38191;BME280;25191;47.510;19.124;2023-05-15T03:38:38;99508.63;;;21.74;55.01
38191;BME280;25191;47.510;19.124;2023-05-15T03:58:39;99485.03;;;21.72;54.62
38191;BME280;25191;47.510;19.124;2023-05-15T04:18:40;99490.31;;;21.72;55.44
38191;BME280;25191;47.510;19.124;2023-05-15T04:38:40;99478.75;;;21.83;56.79
38191;BME280;25191;47.510;19.124;2023-05-15T04:58:41;99517.34;;;21.74;53.52
38191;BME280;25191;47.510;19.124;2023-05-15T05:18:41;99549.16;;;21.53;52.26
38191;BME280;25191;47.510;19.124;2023-05-15T05:38:42;99550.13;;;21.62;52.48
38191;BME280;25191;47.510;19.124;2023-05-15T05:58:44;99574.53;;;21.64;53.38
38191;BME280;25191;47.510;19.124;2023-05-15T06:18:45;99582.53;;;21.72;53.62
38191;BME280;25191;47.510;19.124;2023-05-15T06:38:45;99590.72;;;21.79;53.57
38191;BME280;25191;47.510;19.124;2023-05-15T06:58:46;99558.69;;;21.84;53.19
38191;BME280;25191;47.510;19.124;2023-05-15T07:18:47;99580.84;;;21.91;53.31
38191;BME280;25191;47.510;19.124;2023-05-15T07:38:48;99587.63;;;21.94;52.93
38191;BME280;25191;47.510;19.124;2023-05-15T07:58:48;99563.75;;;21.95;52.88
38191;BME280;25191;47.510;19.124;2023-05-15T08:18:48;99601.44;;;22.05;52.46
38191;BME280;25191;47.510;19.124;2023-05-15T08:38:52;99595.75;;;22.10;52.30
38191;BME280;25191;47.510;19.124;2023-05-15T08:58:53;99571.75;;;22.13;52.32
38191;BME280;25191;47.510;19.124;2023-05-15T09:18:53;99616.19;;;21.88;51.03
38191;BME280;25191;47.510;19.124;2023-05-15T09:38:57;99643.81;;;21.94;51.73
38191;BME280;25191;47.510;19.124;2023-05-15T09:58:58;99634.59;;;22.08;52.26
38191;BME280;25191;47.510;19.124;2023-05-15T10:19:01;99632.06;;;22.26;52.16
38191;BME280;25191;47.510;19.124;2023-05-15T10:39:04;99632.03;;;22.36;52.66
38191;BME280;25191;47.510;19.124;2023-05-15T10:59:07;99648.00;;;22.44;52.41
38191;BME280;25191;47.510;19.124;2023-05-15T11:39:38;99631.84;;;22.57;52.47
38191;BME280;25191;47.510;19.124;2023-05-15T11:59:38;99613.38;;;22.75;53.03
38191;BME280;25191;47.510;19.124;2023-05-15T12:19:39;99621.50;;;22.92;56.06
38191;BME280;25191;47.510;19.124;2023-05-15T12:59:50;99614.41;;;22.92;54.85
38191;BME280;25191;47.510;19.124;2023-05-15T13:19:51;99615.91;;;22.95;54.50
38191;BME280;25191;47.510;19.124;2023-05-15T13:39:51;99603.22;;;22.98;54.35
38191;BME280;25191;47.510;19.124;2023-05-15T13:59:52;99582.34;;;22.87;52.31
38191;BME280;25191;47.510;19.124;2023-05-15T14:19:52;99611.31;;;22.97;53.38
38191;BME280;25191;47.510;19.124;2023-05-15T14:39:53;99618.69;;;22.93;53.60
38191;BME280;25191;47.510;19.124;2023-05-15T14:59:53;99639.22;;;22.99;54.90
38191;BME280;25191;47.510;19.124;2023-05-15T15:19:54;99638.94;;;23.02;54.73
38191;BME280;25191;47.510;19.124;2023-05-15T15:39:54;99663.91;;;23.08;54.08
38191;BME280;25191;47.510;19.124;2023-05-15T15:59:55;99670.84;;;23.09;54.10
38191;BME280;25191;47.510;19.124;2023-05-15T16:19:57;99664.88;;;23.17;55.24
38191;BME280;25191;47.510;19.124;2023-05-15T16:39:58;99686.59;;;23.29;56.10
38191;BME280;25191;47.510;19.124;2023-05-15T16:59:59;99695.59;;;23.08;52.72
38191;BME280;25191;47.510;19.124;2023-05-15T17:20:00;99707.22;;;22.97;51.37
38191;BME280;25191;47.510;19.124;2023-05-15T17:40:00;99742.34;;;22.98;54.00
38191;BME280;25191;47.510;19.124;2023-05-15T18:00:01;99740.13;;;22.93;55.57
38191;BME280;25191;47.510;19.124;2023-05-15T18:20:03;99732.09;;;22.85;55.41
38191;BME280;25191;47.510;19.124;2023-05-15T18:40:05;99759.78;;;22.81;55.08
38191;BME280;25191;47.510;19.124;2023-05-15T19:00:06;99790.38;;;22.74;54.74
38191;BME280;25191;47.510;19.124;2023-05-15T19:20:07;99801.81;;;22.64;54.78
38191;BME280;25191;47.510;19.124;2023-05-15T19:40:08;99798.47;;;22.62;55.10
38191;BME280;25191;47.510;19.124;2023-05-15T20:00:09;99799.59;;;22.60;55.19
38191;BME280;25191;47.510;19.124;2023-05-15T20:20:11;99807.63;;;22.58;55.37
38191;BME280;25191;47.510;19.124;2023-05-15T20:40:12;99827.34;;;22.54;55.43
38191;BME280;25191;47.510;19.124;2023-05-15T21:00:16;99831.81;;;22.53;55.15
38191;BME280;25191;47.510;19.124;2023-05-15T21:20:17;99828.47;;;22.51;55.20
38191;BME280;25191;47.510;19.124;2023-05-15T21:40:17;99839.19;;;22.50;55.38
38191;BME280;25191;47.510;19.124;2023-05-15T22:00:18;99866.25;;;22.52;56.27
38191;BME280;25191;47.510;19.124;2023-05-15T22:20:18;99890.13;;;22.50;55.89
38191;BME280;25191;47.510;19.124;2023-05-15T22:40:19;99904.69;;;22.45;55.99
38191;BME280;25191;47.510;19.124;2023-05-15T23:00:20;99888.34;;;22.41;55.82
38191;BME280;25191;47.510;19.124;2023-05-15T23:20:21;99854.31;;;22.38;55.65
38191;BME280;25191;47.510;19.124;2023-05-15T23:40:21;99848.47;;;22.34;55.71
